createdAt,value
2022-08-21T00:02:25.541Z,48.75
2022-08-21T00:04:56.514Z,50.05
2022-08-21T00:07:25.969Z,52.17
2022-08-21T00:09:53.843Z,55.90
2022-08-21T00:12:22.194Z,51.03
2022-08-21T00:14:49.801Z,47.53
2022-08-21T00:17:17.558Z,58.92
2022-08-21T00:19:45.210Z,52.28
2022-08-21T00:22:12.695Z,40.80
2022-08-21T00:24:40.223Z,55.95
2022-08-21T00:27:08.511Z,40.47
2022-08-21T00:29:36.072Z,47.28
2022-08-21T00:32:03.658Z,41.15
2022-08-21T00:34:31.202Z,41.03
2022-08-21T00:36:58.680Z,40.17
2022-08-21T00:39:26.177Z,44.83
2022-08-21T00:41:53.728Z,39.65
2022-08-21T00:44:21.239Z,45.72
2022-08-21T00:46:48.867Z,40.40
2022-08-21T00:49:17.080Z,47.25
2022-08-21T00:51:50.970Z,46.38
2022-08-21T00:54:20.544Z,37.03
2022-08-21T00:56:51.286Z,42.75
2022-08-21T00:59:21.001Z,35.80
2022-08-21T01:01:48.817Z,46.92
2022-08-21T01:04:17.481Z,27.30
2022-08-21T01:06:45.057Z,41.00
2022-08-21T01:09:13.006Z,33.17
2022-08-21T01:11:40.920Z,38.78
2022-08-21T01:14:08.498Z,34.63
2022-08-21T01:16:36.185Z,33.28
2022-08-21T01:19:03.730Z,34.80
2022-08-21T01:21:31.207Z,37.10
2022-08-21T01:23:59.038Z,29.38
2022-08-21T01:26:33.902Z,31.05
2022-08-21T01:29:05.061Z,31.25
2022-08-21T01:31:34.061Z,33.05
2022-08-21T01:34:01.638Z,28.98
2022-08-21T01:36:29.400Z,23.85
2022-08-21T01:38:57.497Z,33.33
2022-08-21T01:41:24.997Z,32.50
2022-08-21T01:43:52.546Z,32.38
2022-08-21T01:46:21.074Z,27.48
2022-08-21T01:48:48.543Z,23.77
2022-08-21T01:51:16.069Z,27.92
2022-08-21T01:53:43.662Z,29.98
2022-08-21T01:56:12.957Z,27.95
2022-08-21T01:58:42.105Z,28.83
2022-08-21T02:01:10.490Z,24.40
2022-08-21T02:03:38.560Z,25.95
2022-08-21T02:06:07.940Z,21.85
2022-08-21T02:08:35.990Z,26.38
2022-08-21T02:11:03.513Z,27.08
2022-08-21T02:13:30.968Z,25.20
2022-08-21T02:15:58.526Z,19.52
2022-08-21T02:18:26.071Z,23.73
2022-08-21T02:20:56.085Z,21.90
2022-08-21T02:23:26.891Z,19.92
2022-08-21T02:26:02.710Z,20.77
2022-08-21T02:28:31.677Z,24.88
2022-08-21T02:30:59.222Z,20.63
2022-08-21T02:33:28.130Z,21.95
2022-08-21T02:35:56.225Z,16.83
2022-08-21T02:38:31.797Z,19.25
2022-08-21T02:40:59.575Z,22.23
2022-08-21T02:43:28.261Z,15.93
2022-08-21T02:45:56.689Z,18.17
2022-08-21T02:48:25.751Z,19.27
2022-08-21T02:50:55.265Z,18.27
2022-08-21T02:53:23.125Z,17.40
2022-08-21T02:55:51.388Z,15.80
2022-08-21T02:58:21.135Z,24.08
2022-08-21T03:00:48.926Z,20.13
2022-08-21T03:03:16.409Z,16.70
2022-08-21T03:05:44.660Z,17.10
2022-08-21T03:08:13.216Z,15.40
2022-08-21T03:10:41.688Z,17.20
2022-08-21T03:13:09.237Z,16.25
2022-08-21T03:15:37.176Z,15.68
2022-08-21T03:18:06.374Z,16.52
2022-08-21T03:20:34.728Z,12.25
2022-08-21T03:23:04.349Z,14.52
2022-08-21T03:25:41.050Z,16.13
2022-08-21T03:28:13.318Z,16.05
2022-08-21T03:30:48.528Z,16.25
2022-08-21T03:33:16.139Z,15.30
2022-08-21T03:35:48.100Z,20.98
2022-08-21T03:38:15.883Z,14.40
2022-08-21T03:40:44.337Z,17.80
2022-08-21T03:43:11.855Z,14.93
2022-08-21T03:45:40.166Z,15.80
2022-08-21T03:48:08.814Z,14.38
2022-08-21T03:50:40.944Z,14.68
2022-08-21T03:53:17.138Z,14.90
2022-08-21T03:55:46.829Z,15.07
2022-08-21T03:58:16.967Z,16.83
2022-08-21T04:00:46.260Z,14.95
2022-08-21T04:03:13.916Z,18.50
2022-08-21T04:05:42.047Z,14.77
2022-08-21T04:08:10.119Z,13.45
2022-08-21T04:10:39.075Z,12.35
2022-08-21T04:13:07.264Z,12.88
2022-08-21T04:15:35.187Z,12.63
2022-08-21T04:18:02.991Z,12.43
2022-08-21T04:20:30.472Z,14.05
2022-08-21T04:22:58.081Z,12.60
2022-08-21T04:25:28.665Z,14.55
2022-08-21T04:27:56.439Z,12.43
2022-08-21T04:30:27.623Z,15.43
2022-08-21T04:32:56.880Z,12.35
2022-08-21T04:35:25.374Z,14.00
2022-08-21T04:37:53.291Z,9.95
2022-08-21T04:40:22.559Z,12.15
2022-08-21T04:42:51.642Z,11.60
2022-08-21T04:45:38.579Z,15.43
2022-08-21T04:48:10.831Z,12.70
2022-08-21T04:50:49.223Z,8.68
2022-08-21T04:53:21.474Z,10.15
2022-08-21T04:55:49.373Z,9.20
2022-08-21T04:58:18.636Z,8.38
2022-08-21T05:00:46.609Z,8.80
2022-08-21T05:03:14.404Z,14.82
2022-08-21T05:05:41.936Z,9.27
2022-08-21T05:08:13.557Z,8.10
2022-08-21T05:10:41.081Z,7.95
2022-08-21T05:13:08.870Z,12.38
2022-08-21T05:15:36.305Z,11.80
2022-08-21T05:18:04.211Z,9.25
2022-08-21T05:20:31.659Z,10.77
2022-08-21T05:22:59.243Z,7.35
2022-08-21T05:25:28.196Z,7.47
2022-08-21T05:27:55.997Z,7.10
2022-08-21T05:30:25.749Z,8.50
2022-08-21T05:32:58.313Z,8.00
2022-08-21T05:35:25.948Z,8.90
2022-08-21T05:37:53.457Z,10.23
2022-08-21T05:40:23.212Z,8.48
2022-08-21T05:42:54.616Z,7.82
2022-08-21T05:45:43.130Z,8.32
2022-08-21T05:48:13.034Z,7.88
2022-08-21T05:50:40.579Z,7.68
2022-08-21T05:53:08.605Z,8.40
2022-08-21T05:55:41.396Z,7.60
2022-08-21T05:58:12.339Z,8.48
2022-08-21T06:00:39.890Z,8.25
2022-08-21T06:03:12.332Z,7.93
2022-08-21T06:05:39.995Z,7.78
2022-08-21T06:08:07.450Z,9.00
2022-08-21T06:10:34.928Z,9.27
2022-08-21T06:13:02.760Z,9.77
2022-08-21T06:15:30.312Z,10.82
2022-08-21T06:17:57.757Z,8.57
2022-08-21T06:20:25.242Z,9.90
2022-08-21T06:22:52.712Z,6.40
2022-08-21T06:25:20.397Z,10.98
2022-08-21T06:27:48.349Z,8.82
2022-08-21T06:30:16.150Z,12.57
2022-08-21T06:32:43.705Z,8.52
2022-08-21T06:35:11.491Z,8.80
2022-08-21T06:37:39.278Z,7.47
2022-08-21T06:40:12.618Z,11.20
2022-08-21T06:42:42.682Z,10.60
2022-08-21T06:45:11.227Z,11.90
2022-08-21T06:47:38.990Z,13.70
2022-08-21T06:50:08.634Z,8.98
2022-08-21T06:52:36.736Z,9.55
2022-08-21T06:55:04.937Z,12.77
2022-08-21T06:57:32.392Z,6.25
2022-08-21T06:59:59.879Z,7.28
2022-08-21T07:02:27.543Z,9.88
2022-08-21T07:04:54.972Z,8.90
2022-08-21T07:07:22.445Z,11.75
2022-08-21T07:09:49.905Z,10.45
2022-08-21T07:12:17.414Z,29.92
2022-08-21T07:14:45.516Z,30.95
2022-08-21T07:17:12.966Z,18.85
2022-08-21T07:19:40.502Z,15.05
2022-08-21T07:22:08.388Z,17.10
2022-08-21T07:24:35.835Z,10.27
2022-08-21T07:27:06.033Z,11.40
2022-08-21T07:29:36.069Z,23.10
2022-08-21T07:32:03.619Z,9.25
2022-08-21T07:34:31.188Z,11.02
2022-08-21T07:36:59.677Z,9.85
2022-08-21T07:39:33.709Z,10.77
2022-08-21T07:42:05.042Z,7.03
2022-08-21T07:44:35.566Z,8.00
2022-08-21T07:47:03.214Z,9.43
2022-08-21T07:49:30.718Z,9.18
2022-08-21T07:51:58.570Z,13.35
2022-08-21T07:54:33.350Z,6.00
2022-08-21T07:57:01.511Z,5.75
2022-08-21T07:59:29.521Z,11.07
2022-08-21T08:01:57.702Z,6.32
2022-08-21T08:04:26.593Z,7.85
2022-08-21T08:06:54.620Z,5.75
2022-08-21T08:09:22.181Z,7.38
2022-08-21T08:11:49.667Z,6.13
2022-08-21T08:14:17.218Z,4.68
2022-08-21T08:16:44.753Z,6.57
2022-08-21T08:19:12.271Z,5.85
2022-08-21T08:21:39.960Z,5.22
2022-08-21T08:24:19.071Z,3.95
2022-08-21T08:26:50.594Z,6.60
2022-08-21T08:29:22.325Z,6.43
2022-08-21T08:31:49.895Z,2.75
2022-08-21T08:34:25.087Z,4.88
2022-08-21T08:36:53.523Z,3.67
2022-08-21T08:39:26.794Z,8.02
2022-08-21T08:44:26.013Z,4.80
2022-08-21T08:46:58.862Z,3.47
2022-08-21T08:49:26.302Z,3.60
2022-08-21T08:51:56.372Z,3.50
2022-08-21T08:54:32.421Z,4.60
2022-08-21T08:59:44.109Z,5.40
2022-08-21T09:02:13.589Z,6.00
2022-08-21T09:04:41.194Z,4.57
2022-08-21T09:07:23.008Z,6.25
2022-08-21T09:10:06.007Z,12.02
2022-08-21T09:12:33.469Z,7.55
2022-08-21T09:15:18.615Z,6.30
2022-08-21T09:17:46.087Z,5.90
2022-08-21T09:20:20.014Z,4.20
2022-08-21T09:23:11.440Z,12.10
2022-08-21T09:25:43.986Z,11.07
2022-08-21T09:28:13.821Z,10.52
2022-08-21T09:30:42.269Z,17.63
2022-08-21T09:33:13.176Z,4.15
2022-08-21T09:35:50.493Z,6.80
2022-08-21T09:38:26.661Z,9.80
2022-08-21T09:40:58.804Z,8.63
2022-08-21T09:43:26.435Z,12.30
2022-08-21T09:46:06.182Z,8.50
2022-08-21T09:48:41.046Z,10.02
2022-08-21T09:51:10.671Z,14.60
2022-08-21T09:53:43.508Z,5.88
2022-08-21T09:56:48.374Z,10.63
2022-08-21T09:59:17.307Z,7.68
2022-08-21T10:01:46.083Z,12.30
2022-08-21T10:04:13.683Z,7.68
2022-08-21T10:06:41.298Z,7.50
2022-08-21T10:09:17.928Z,9.95
2022-08-21T10:11:56.798Z,11.07
2022-08-21T10:14:40.088Z,8.18
2022-08-21T10:17:12.252Z,8.55
2022-08-21T10:19:52.351Z,11.00
2022-08-21T10:22:30.974Z,6.63
2022-08-21T10:25:02.901Z,7.82
2022-08-21T10:27:50.715Z,17.25
2022-08-21T10:30:36.422Z,11.60
2022-08-21T10:33:06.980Z,10.80
2022-08-21T10:35:38.777Z,8.23
2022-08-21T10:38:09.195Z,12.77
2022-08-21T10:40:42.633Z,12.00
2022-08-21T10:43:27.031Z,12.63
2022-08-21T10:45:59.970Z,16.05
2022-08-21T10:48:37.273Z,7.28
2022-08-21T10:51:08.189Z,7.70
2022-08-21T10:53:35.658Z,11.93
2022-08-21T10:56:16.475Z,14.68
2022-08-21T10:58:59.331Z,16.60
2022-08-21T11:01:29.944Z,33.60
2022-08-21T11:04:06.223Z,35.03
2022-08-21T11:06:34.299Z,15.98
2022-08-21T11:09:31.084Z,11.82
2022-08-21T11:12:11.487Z,9.00
2022-08-21T11:14:39.900Z,14.82
2022-08-21T11:17:21.844Z,10.07
2022-08-21T11:19:49.707Z,10.85
2022-08-21T11:22:27.750Z,8.63
2022-08-21T11:25:01.477Z,13.52
2022-08-21T11:27:41.201Z,23.23
2022-08-21T11:30:09.591Z,19.38
2022-08-21T11:33:09.448Z,19.35
2022-08-21T11:35:45.959Z,20.23
2022-08-21T11:38:16.514Z,20.05
2022-08-21T11:40:50.244Z,16.58
2022-08-21T11:43:23.763Z,18.10
2022-08-21T11:45:52.944Z,13.02
2022-08-21T11:48:20.405Z,16.08
2022-08-21T11:50:48.491Z,11.98
2022-08-21T11:53:22.275Z,9.20
2022-08-21T11:55:52.740Z,8.77
2022-08-21T11:58:20.255Z,8.63
2022-08-21T12:00:51.346Z,6.95
2022-08-21T12:03:25.106Z,10.05
2022-08-21T12:05:59.948Z,9.65
2022-08-21T12:08:30.645Z,7.90
2022-08-21T12:11:29.778Z,9.57
2022-08-21T12:14:13.570Z,13.95
2022-08-21T12:16:45.101Z,10.73
2022-08-21T12:19:14.475Z,14.82
2022-08-21T12:22:00.515Z,13.30
2022-08-21T12:24:37.187Z,14.40
2022-08-21T12:27:21.326Z,13.65
2022-08-21T12:29:50.722Z,18.95
2022-08-21T12:32:18.198Z,11.85
2022-08-21T12:34:55.718Z,8.57
2022-08-21T12:37:39.572Z,7.68
2022-08-21T12:40:13.124Z,6.32
2022-08-21T12:42:43.469Z,14.40
2022-08-21T12:45:21.825Z,9.48
2022-08-21T12:47:53.192Z,8.45
2022-08-21T12:50:53.216Z,10.25
2022-08-21T12:53:39.344Z,12.68
2022-08-21T12:56:11.439Z,19.52
2022-08-21T12:58:42.171Z,13.48
2022-08-21T13:01:21.526Z,8.25
2022-08-21T13:03:57.310Z,8.00
2022-08-21T13:06:35.343Z,9.98
2022-08-21T13:09:07.209Z,9.90
2022-08-21T13:11:35.496Z,10.18
2022-08-21T13:14:05.205Z,13.25
2022-08-21T13:16:35.685Z,11.00
2022-08-21T13:19:07.907Z,10.63
2022-08-21T13:21:37.840Z,16.70
2022-08-21T13:24:39.180Z,10.68
2022-08-21T13:27:05.467Z,14.70
2022-08-21T13:29:35.977Z,12.43
2022-08-21T13:32:08.996Z,10.05
2022-08-21T13:34:37.477Z,11.02
2022-08-21T13:37:09.654Z,17.40
2022-08-21T13:39:37.296Z,11.05
2022-08-21T13:42:10.719Z,13.57
2022-08-21T13:44:45.753Z,12.60
2022-08-21T13:47:15.554Z,6.85
2022-08-21T13:49:48.078Z,10.80
2022-08-21T13:52:20.976Z,10.77
2022-08-21T13:54:56.839Z,13.73
2022-08-21T13:57:29.618Z,18.77
2022-08-21T14:00:12.912Z,60.65
2022-08-21T14:02:44.305Z,16.35
2022-08-21T14:05:21.540Z,25.90
2022-08-21T14:07:50.841Z,16.45
2022-08-21T14:10:23.929Z,22.20
2022-08-21T14:12:56.935Z,34.42
2022-08-21T14:15:26.255Z,18.90
2022-08-21T14:17:54.266Z,15.75
2022-08-21T14:20:36.111Z,16.90
2022-08-21T14:23:04.289Z,14.00
2022-08-21T14:25:44.080Z,20.98
2022-08-21T14:28:28.230Z,12.38
2022-08-21T14:30:58.493Z,14.23
2022-08-21T14:33:31.572Z,16.75
2022-08-21T14:35:59.249Z,25.38
2022-08-21T14:38:27.880Z,16.65
2022-08-21T14:40:56.953Z,15.70
2022-08-21T14:43:25.185Z,16.33
2022-08-21T14:45:52.719Z,25.00
2022-08-21T14:48:20.309Z,17.63
2022-08-21T14:50:48.573Z,19.63
2022-08-21T14:53:16.333Z,17.27
2022-08-21T14:56:02.649Z,19.48
2022-08-21T14:58:30.225Z,21.88
2022-08-21T15:00:59.415Z,23.63
2022-08-21T15:03:27.453Z,22.48
2022-08-21T15:05:55.001Z,23.90
2022-08-21T15:08:22.908Z,24.85
2022-08-21T15:11:10.583Z,26.90
2022-08-21T15:13:38.625Z,26.48
2022-08-21T15:16:06.185Z,22.15
2022-08-21T15:18:33.866Z,21.42
2022-08-21T15:21:01.452Z,23.40
2022-08-21T15:23:29.039Z,20.85
2022-08-21T15:25:59.066Z,20.50
2022-08-21T15:28:27.342Z,26.85
2022-08-21T15:31:01.636Z,26.27
2022-08-21T15:33:29.892Z,20.05
2022-08-21T15:35:57.493Z,20.77
2022-08-21T15:38:25.471Z,20.48
2022-08-21T15:40:53.853Z,22.50
2022-08-21T15:43:29.999Z,24.83
2022-08-21T15:45:59.657Z,22.15
2022-08-21T15:48:27.839Z,20.10
2022-08-21T15:50:55.431Z,20.45
2022-08-21T15:53:23.094Z,20.52
2022-08-21T15:55:50.689Z,23.13
2022-08-21T15:58:21.886Z,19.73
2022-08-21T16:00:49.750Z,20.55
2022-08-21T16:03:21.089Z,20.80
2022-08-21T16:05:53.950Z,18.83
2022-08-21T16:08:22.461Z,14.38
2022-08-21T16:10:50.144Z,10.20
2022-08-21T16:13:23.602Z,11.85
2022-08-21T16:15:51.406Z,24.67
2022-08-21T16:18:20.035Z,13.15
2022-08-21T16:20:47.705Z,20.50
2022-08-21T16:23:15.314Z,12.55
2022-08-21T16:25:43.306Z,15.63
2022-08-21T16:28:12.274Z,11.57
2022-08-21T16:30:41.530Z,7.63
2022-08-21T16:33:09.711Z,10.95
2022-08-21T16:35:37.357Z,12.65
2022-08-21T16:38:05.094Z,11.30
2022-08-21T16:40:32.731Z,15.35
2022-08-21T16:43:00.335Z,9.65
2022-08-21T16:45:32.592Z,9.55
2022-08-21T16:48:00.921Z,9.18
2022-08-21T16:50:28.752Z,10.77
2022-08-21T16:52:56.322Z,40.58
2022-08-21T16:55:23.893Z,9.40
2022-08-21T16:57:51.373Z,10.15
2022-08-21T17:00:18.929Z,9.82
2022-08-21T17:02:48.632Z,10.40
2022-08-21T17:05:16.560Z,8.45
2022-08-21T17:07:44.734Z,9.43
2022-08-21T17:10:13.465Z,5.88
2022-08-21T17:12:42.048Z,9.45
2022-08-21T17:15:23.373Z,9.05
2022-08-21T17:17:51.292Z,12.80
2022-08-21T17:20:19.223Z,12.50
2022-08-21T17:22:46.743Z,8.98
2022-08-21T17:25:14.484Z,8.35
2022-08-21T17:27:44.116Z,10.32
2022-08-21T17:30:12.689Z,7.97
2022-08-21T17:32:40.537Z,9.40
2022-08-21T17:35:08.270Z,8.48
2022-08-21T17:37:36.369Z,8.18
2022-08-21T17:40:08.149Z,12.73
2022-08-21T17:42:35.865Z,10.90
2022-08-21T17:45:03.929Z,10.32
2022-08-21T17:47:31.687Z,11.52
2022-08-21T17:49:59.391Z,4.78
2022-08-21T17:52:26.880Z,9.45
2022-08-21T17:54:54.397Z,22.98
2022-08-21T17:57:23.607Z,12.10
2022-08-21T17:59:55.155Z,9.70
2022-08-21T18:02:25.835Z,5.20
2022-08-21T18:04:55.545Z,5.05
2022-08-21T18:07:32.240Z,8.45
2022-08-21T18:10:05.026Z,8.20
2022-08-21T18:12:33.251Z,13.60
2022-08-21T18:15:01.899Z,5.28
2022-08-21T18:17:32.676Z,8.10
2022-08-21T18:20:00.420Z,9.63
2022-08-21T18:22:27.897Z,5.60
2022-08-21T18:24:55.450Z,9.70
2022-08-21T18:27:25.629Z,6.20
2022-08-21T18:29:57.854Z,6.28
2022-08-21T18:32:30.421Z,7.80
2022-08-21T18:35:01.568Z,26.77
2022-08-21T18:37:29.179Z,11.90
2022-08-21T18:39:56.815Z,12.07
2022-08-21T18:42:28.741Z,7.40
2022-08-21T18:44:58.517Z,9.15
2022-08-21T18:47:33.686Z,8.68
2022-08-21T18:50:01.558Z,12.50
2022-08-21T18:52:29.122Z,11.48
2022-08-21T18:54:56.719Z,9.93
2022-08-21T18:57:28.724Z,11.50
2022-08-21T18:59:56.329Z,8.85
2022-08-21T19:02:26.358Z,7.63
2022-08-21T19:04:56.373Z,7.63
2022-08-21T19:07:23.977Z,9.90
2022-08-21T19:10:20.969Z,6.43
2022-08-21T19:12:42.126Z,8.68
2022-08-21T19:15:11.464Z,9.07
2022-08-21T19:17:39.380Z,13.10
2022-08-21T19:20:30.406Z,17.85
2022-08-21T19:22:58.389Z,8.82
2022-08-21T19:25:33.460Z,9.27
2022-08-21T19:28:01.954Z,8.05
2022-08-21T19:30:30.928Z,7.43
2022-08-21T19:32:58.795Z,5.40
2022-08-21T19:35:27.661Z,4.13
2022-08-21T19:37:55.334Z,9.18
2022-08-21T19:40:22.808Z,6.97
2022-08-21T19:42:50.335Z,7.45
2022-08-21T19:45:17.990Z,10.45
2022-08-21T19:47:50.966Z,4.70
2022-08-21T19:50:21.409Z,23.35
2022-08-21T19:52:51.395Z,6.35
2022-08-21T19:55:19.475Z,4.20
2022-08-21T19:57:47.103Z,7.85
2022-08-21T20:00:17.176Z,7.43
2022-08-21T20:02:48.140Z,8.60
2022-08-21T20:05:40.038Z,11.75
2022-08-21T20:08:20.032Z,3.67
2022-08-21T20:13:36.302Z,5.95
2022-08-21T20:16:06.690Z,6.43
2022-08-21T20:18:35.457Z,4.35
2022-08-21T20:21:03.486Z,5.22
2022-08-21T20:23:32.928Z,5.28
2022-08-21T20:26:01.880Z,3.92
2022-08-21T20:28:30.177Z,6.38
2022-08-21T20:30:58.222Z,5.50
2022-08-21T20:33:26.240Z,5.57
2022-08-21T20:35:54.390Z,5.30
2022-08-21T20:38:22.408Z,6.32
2022-08-21T20:40:51.607Z,4.75
2022-08-21T20:43:20.806Z,6.88
2022-08-21T20:45:49.198Z,19.08
2022-08-21T20:48:49.632Z,7.70
2022-08-21T20:51:23.357Z,8.30
2022-08-21T20:54:03.724Z,8.65
2022-08-21T20:56:47.065Z,3.70
2022-08-21T20:59:34.030Z,5.72
2022-08-21T21:02:12.166Z,9.57
2022-08-21T21:07:57.174Z,5.30
2022-08-21T21:10:29.348Z,7.30
2022-08-21T21:13:00.970Z,12.40
2022-08-21T21:15:30.784Z,5.90
2022-08-21T21:18:15.846Z,4.32
2022-08-21T21:20:49.688Z,3.33
2022-08-21T21:23:20.726Z,4.25
2022-08-21T21:25:53.937Z,4.90
2022-08-21T21:28:43.141Z,5.85
2022-08-21T21:31:11.341Z,2.92
2022-08-21T21:33:40.298Z,14.18
2022-08-21T21:36:16.908Z,8.20
2022-08-21T21:38:52.227Z,9.13
2022-08-21T21:41:22.609Z,7.80
2022-08-21T21:44:07.958Z,7.07
2022-08-21T21:46:49.203Z,4.00
2022-08-21T21:49:26.069Z,13.68
2022-08-21T21:52:02.251Z,6.97
2022-08-21T21:54:55.873Z,7.20
2022-08-21T21:57:29.552Z,8.50
2022-08-21T22:00:12.012Z,8.27
2022-08-21T22:02:48.163Z,11.35
2022-08-21T22:05:18.777Z,8.60
2022-08-21T22:07:53.436Z,11.18
2022-08-21T22:10:30.125Z,15.73
2022-08-21T22:13:33.444Z,7.25
2022-08-21T22:16:06.515Z,11.43
2022-08-21T22:18:37.721Z,10.23
2022-08-21T22:21:22.414Z,6.95
2022-08-21T22:23:53.433Z,8.15
2022-08-21T22:26:23.486Z,8.75
2022-08-21T22:28:52.823Z,7.95
2022-08-21T22:31:22.448Z,6.95
2022-08-21T22:34:04.668Z,7.13
2022-08-21T22:36:36.620Z,9.75
2022-08-21T22:39:05.679Z,7.80
2022-08-21T22:41:37.917Z,6.82
2022-08-21T22:44:07.832Z,8.40
2022-08-21T22:46:45.099Z,8.73
2022-08-21T22:49:15.821Z,5.28
2022-08-21T22:51:45.045Z,4.63
2022-08-21T22:54:21.748Z,4.97
2022-08-21T22:56:58.160Z,5.57
2022-08-21T23:02:12.542Z,6.82
2022-08-21T23:04:47.005Z,9.98
2022-08-21T23:07:31.466Z,8.05
2022-08-21T23:10:00.377Z,5.63
2022-08-21T23:12:37.738Z,4.20
2022-08-21T23:15:13.136Z,13.50
2022-08-21T23:17:52.392Z,6.25
2022-08-21T23:20:30.970Z,10.10
2022-08-21T23:23:13.494Z,5.10
2022-08-21T23:25:57.753Z,5.70
2022-08-21T23:28:44.422Z,13.05
2022-08-21T23:33:39.390Z,4.78
2022-08-21T23:36:31.269Z,4.95
2022-08-21T23:39:10.861Z,12.85
2022-08-21T23:41:43.045Z,5.03
2022-08-21T23:44:41.107Z,5.95
2022-08-21T23:47:20.676Z,4.40
2022-08-21T23:49:53.936Z,5.50
2022-08-21T23:52:36.715Z,6.20
2022-08-21T23:55:16.428Z,5.47
2022-08-21T23:58:02.245Z,5.90
